EST,Max TemperatureF,Mean TemperatureF,Min TemperatureF,Max Dew PointF,MeanDew PointF,Min DewpointF,Max Humidity, Mean Humidity, Min Humidity, Max Sea Level PressureIn, Mean Sea Level PressureIn, Min Sea Level PressureIn, Max VisibilityMiles, Mean VisibilityMiles, Min VisibilityMiles, Max Wind SpeedMPH, Mean Wind SpeedMPH, Max Gust SpeedMPH,PrecipitationIn, CloudCover, Events, WindDirDegrees
2013-1-1,35,22,6,25,12,-2,80,54,40,29.93,29.79,29.70,10,10,10,17,8,25,0.00,5,,300
2013-1-2,24,12,0,12,2,-8,92,71,50,30.14,29.97,29.89,10,10,5,17,3,23,0.00,3,,335
2013-1-3,17,3,-11,3,-5,-15,92,67,35,30.16,30.08,29.97,10,10,9,7,1,,0.00,1,,183
2013-1-4,37,22,6,19,14,1,92,63,45,29.96,29.87,29.79,10,9,6,15,3,28,0.00,7,,257
2013-1-5,37,27,17,21,17,12,86,56,36,30.24,30.07,29.83,10,10,10,14,8,22,0.00,3,,288
2013-1-6,37,27,17,27,21,12,93,81,60,30.19,30.02,29.92,10,9,3,8,1,,0.00,5,,210
2013-1-7,32,22,10,25,17,9,93,72,41,30.37,30.23,29.96,10,9,4,15,3,20,0.00,2,,351
2013-1-8,41,23,5,25,15,1,93,77,45,30.36,30.30,30.25,10,9,3,12,2,,0.00,0,,203
2013-1-9,42,27,12,28,20,9,93,81,49,30.38,30.20,30.00,10,7,0,13,1,21,0.00,2,,212
2013-1-10,42,35,28,28,21,19,75,53,39,30.54,30.36,30.05,10,10,10,24,10,33,0.00,2,,323
2013-1-11,37,28,19,30,24,18,93,81,56,30.53,30.37,30.18,10,8,1,12,2,,0.08,3,,194
2013-1-12,39,36,33,37,33,30,100,92,87,30.20,30.15,30.12,9,1,0,4,0,,0.02,8,,224
2013-1-13,42,38,33,39,36,32,100,93,87,30.14,30.07,29.99,5,1,0,5,0,,0.00,8,,204
2013-1-14,51,43,35,45,33,21,100,74,50,30.28,30.07,29.88,10,6,0,13,3,23,0.00,3,,290
2013-1-15,37,30,24,27,22,19,93,70,48,30.34,30.27,30.23,10,10,7,8,1,,0.00,1,,350
2013-1-16,30,29,28,28,27,23,93,91,80,30.23,29.97,29.81,10,5,0,5,0,,0.25,7,,339
2013-1-17,37,30,23,30,20,3,93,71,40,30.10,29.96,29.83,10,10,3,14,5,18,0.00,4,,258
2013-1-18,24,16,8,7,-1,-6,79,51,33,30.39,30.29,30.06,10,10,10,14,7,24,0.00,2,,327
2013-1-19,42,30,19,25,16,7,86,57,39,30.30,30.06,29.82,10,10,9,23,7,28,0.00,1,,202
2013-1-20,44,35,24,28,18,7,86,58,26,29.95,29.72,29.55,10,10,8,20,6,29,0.00,3,,259
2013-1-21,24,20,15,18,6,0,93,56,39,30.05,29.95,29.76,10,9,3,14,6,21,0.00,5,,228
2013-1-22,19,12,6,16,4,-8,93,65,35,30.04,29.87,29.74,10,9,1,14,3,22,0.00,4,,270
2013-1-23,10,4,-4,-4,-11,-17,78,47,31,30.11,30.07,30.03,10,10,10,14,5,22,0.00,0,,274
2013-1-24,15,3,-9,-4,-11,-17,92,55,27,30.23,30.13,30.08,10,10,8,16,4,25,0.00,0,,311
2013-1-25,17,8,-2,9,-6,-15,85,51,30,30.31,30.20,30.05,10,9,2,8,2,,0.00,2,,2
2013-1-26,19,12,5,7,-1,-9,85,58,30,30.24,30.10,30.01,10,10,5,16,5,23,0.00,0,,344
2013-1-27,26,12,-2,7,-2,-8,92,61,26,30.46,30.38,30.24,10,10,10,14,3,21,0.00,0,,335
2013-1-28,23,14,5,21,11,1,93,82,62,30.46,30.24,30.00,10,7,0,5,1,,0.04,6,,357
2013-1-29,33,28,23,30,24,19,93,86,75,30.17,30.11,30.01,10,8,2,6,2,,0.11,8,,285
2013-1-30,51,42,32,52,38,30,100,92,87,30.11,29.73,29.38,8,1,0,13,1,18,0.05,8,,191
2013-1-31,57,42,28,55,31,9,100,66,41,29.57,29.24,28.92,10,9,0,29,13,41,0.79,6,,237